Tiempo atmosférico en la estación meteorológica de Piornal, Cáceres (1175 m.)



Fecha
DESCASC
Temp. máxima en grados centígrados (hora)
DESCASC
Temp. mínima en grados centígrados (hora)
DESCASC
Temp. media en grados centígrados
DESCASC
Racha de viento máxima en m/sg (hora)
DESCASC
Velocidad máxima media en intervalos de 10 minutos(hora)
DESCASC
Precipitaciones diarias en mm
DESCASC
Precipitaciones de 00:00 a 06:00 en mm
DESCASC
Precipitaciones de 06:00 a 12:00 en mm
DESCASC
Precipitaciones de 12:00 a 18:00 en mm
DESCASC
Precipitaciones de 18:00 a 24:00 en mm
DESCASC
17-10-2019 12.3 (23:20) 8.2 (03:30) 10.3 5.83 (20:10) 2.5 (20:20) 24.2 0 12.2 2.8 9.2
16-10-2019 14.4 (15:20) 5.2 (02:30) 9.8 5.56 (14:20) 2.78 (14:20) 0 0 0 0 0
15-10-2019 13 (16:20) 3.1 (06:30) 8 11.94 (03:30) 5.56 (03:00) 0 0 0 0 0
14-10-2019 14.1 (00:20) 4.3 (23:59) 9.2 14.44 (06:50) 5.56 (15:20) 19.8 0 9.6 10.2 0
13-10-2019 16.8 (15:50) 10.3 (00:00) 13.5 8.06 (18:50) 4.17 (23:59) 0 0 0 0 0
12-10-2019 21.2 (15:40) 14.7 (00:00) 18 9.72 (12:30) 4.72 (15:10) 0 0 0 0 0
11-10-2019 21.1 (15:30) 13.9 (00:00) 17.5 10.56 (10:00) 5 (10:10) 0 0 0 0 0
10-10-2019 21.4 (16:30) 13.5 (00:00) 17.4 8.33 (05:00) 4.44 (14:50) 0 0 0 0 0
09-10-2019 25.3 (17:30) 15.2 (00:00) 20.2 4.17 (06:40) 2.22 (03:10) 0 0 0 0 0
08-10-2019 27 (16:50) 16.5 (00:00) 21.8 6.11 (11:20) 2.78 (06:10) 0 0 0 0 0
07-10-2019 27.6 (16:30) 14.4 (00:00) 21 5.28 (01:10) 2.22 (09:30) 0 0 0 0 0
06-10-2019 25.5 (16:50) 12 (00:00) 18.8 9.72 (22:00) 4.44 (22:00) 0 0 0 0 0
05-10-2019 23.7 (16:20) 11.6 (00:00) 17.7 4.72 (18:20) 2.22 (17:00) 0 0 0 0 0
04-10-2019 24.5 (16:20) 12.9 (00:00) 18.7 6.11 (11:20) 2.78 (08:40) 0 0 0 0 0
03-10-2019 24.7 (16:40) 9.8 (00:00) 17.3 6.67 (21:10) 3.06 (21:10) 0 0 0 0 0
02-10-2019 23.3 (16:20) 11.5 (00:00) 17.4 10.56 (02:40) 5.83 (00:40) 0 0 0 0 0
01-10-2019 21.3 (15:30) 11.6 (00:00) 16.4 12.5 (18:10) 6.39 (18:10) 0 0 0 0 0
30-09-2019 24.6 (16:00) 14.2 (00:00) 19.4 4.44 (13:40) 2.22 (12:20) 0 0 0 0 0
29-09-2019 26 (16:40) 12.5 (00:00) 19.3 4.17 (15:20) 1.94 (15:10) 0 0 0 0 0
28-09-2019 24.8 (15:10) 12.4 (00:00) 18.6 5 (16:20) 1.94 (01:00) 0 0 0 0 0
27-09-2019 25 (15:40) 12 (00:00) 18.5 6.11 (16:40) 3.33 (17:00) 0 0 0 0 0
26-09-2019 23.8 (17:20) 13.1 (00:00) 18.4 6.39 (11:20) 2.78 (11:20) 0 0 0 0 0
25-09-2019 21.9 (16:20) 9.5 (00:00) 15.7 7.22 (02:20) 3.89 (02:30) 0 0 0 0 0
24-09-2019 20.5 (15:40) 10.5 (00:00) 15.5 8.06 (16:00) 4.17 (16:00) 0 0 0 0 0
23-09-2019 20.3 (16:30) 7.3 (00:00) 13.8 3.89 (15:00) 2.22 (16:10) 0 0 0 0 0
22-09-2019 16.1 (16:00) 8.3 (00:00) 12.2 12.5 (00:30) 4.17 (00:20) 18.2 18 0.2 0 0
21-09-2019 13.7 (22:20) 11.3 (00:00) 12.5 11.11 (23:10) 5 (23:10) 23.4 0.2 3.4 10.4 9.4
20-09-2019 19.6 (16:00) 13.5 (00:00) 16.6 10.83 (10:50) 5 (10:20) 0 0 0 0 0

Gráficas

Temp. máximas Temp. mínimas Temp. medias Precipitaciones Rachas de viento máximas Velocidades máximas media en intervalos de 10 minutos

Datos horarios

Fecha y hora oficial Temperatura (ºC) Velocidad del viento (km/h) Dirección del viento Racha (km/h) Dirección de racha Precipitación (mm) Presión (hPa) Tendencia (hPa) Humedad (%)
2019-10-19 23:00:00 7.7 11 Sudoeste 31 Oeste 0.2 -- -- 100
2019-10-19 22:00:00 8.8 12 Sudoeste 34 Sur 0.4 -- -- 100
2019-10-19 21:00:00 9.4 10 Sur 39 Sudoeste 2.4 -- -- 100
2019-10-19 20:00:00 9.4 9 Sur 37 Sur 6.4 -- -- 100
2019-10-19 19:00:00 9.2 15 Sudeste 37 Sudeste 1.2 -- -- 100
2019-10-19 18:00:00 9.2 12 Sudeste 35 Sur 3.4 -- -- 100
2019-10-19 17:00:00 8.3 10 Sudeste 29 Este 0.4 -- -- 100
2019-10-19 16:00:00 7.9 13 Este 32 Sudeste 0.4 -- -- 100
2019-10-19 15:00:00 8.1 15 Este 30 Este 0.4 -- -- 100
2019-10-19 14:00:00 8.2 10 Sudeste 27 Este 0 -- -- 100
2019-10-19 13:00:00 7.9 6 Sudeste 18 Sudeste 0.4 -- -- 99
2019-10-19 12:00:00 7.8 5 Sudeste 19 Este 0.4 -- -- 100
2019-10-19 11:00:00 7.5 4 Sudeste 15 Sudeste 0 -- -- 100
2019-10-19 10:00:00 7.1 4 Sur 14 Sur 0.2 -- -- 100
2019-10-19 09:00:00 6.7 3 Sur 13 Sur 0 -- -- 100
2019-10-19 08:00:00 6.7 4 Sur 12 Sudoeste 0 -- -- 100
2019-10-19 07:00:00 6.5 3 Sudoeste 8 Sudoeste 0 -- -- 98
2019-10-19 06:00:00 6.7 0 Calma 18 Oeste 0 -- -- 98
2019-10-19 05:00:00 7.2 8 Sudoeste 24 Sudoeste 0 -- -- 100
2019-10-19 04:00:00 7.6 8 Sudoeste 21 Sudoeste 0 -- -- 99
2019-10-19 03:00:00 7.7 6 Sudoeste 19 Sur 0 -- -- 98
2019-10-19 02:00:00 8.1 7 Sudoeste 18 Sur 0 -- -- 98
2019-10-19 01:00:00 8.2 5 Sudoeste 11 Sudoeste 0 -- -- 96
2019-10-19 00:00:00 8.2 0 Calma 5 Oeste 0 -- -- 93
2019-10-18 23:00:00 8.6 3 Oeste 15 Sudoeste 0 -- -- 92
2019-10-18 22:00:00 9.3 6 Sudoeste 17 Sudoeste 0 -- -- 93
2019-10-18 21:00:00 9.3 4 Sur 13 Sur 0 -- -- 94
2019-10-18 20:00:00 9.5 0 Calma 12 Sur 0 -- -- 91
2019-10-18 19:00:00 11.3 5 Sudeste 18 Sur 0 -- -- 83
2019-10-18 18:00:00 12.5 5 Sudeste 13 Sudeste 0 -- -- 86
2019-10-18 17:00:00 14.6 6 Sudeste 18 Este 0 -- -- 79
2019-10-18 16:00:00 13.5 4 Sudeste 17 Sur 0 -- -- 86
2019-10-18 15:00:00 12.8 5 Sur 15 Sur 0 -- -- 94
2019-10-18 14:00:00 12.6 5 Sur 16 Oeste 0 -- -- 97
2019-10-18 13:00:00 12.5 5 Sur 15 Sudoeste 0 -- -- 100
2019-10-18 12:00:00 12.1 5 Sur 20 Sur 0 -- -- 100
2019-10-18 11:00:00 11.7 8 Sudoeste 21 Sudoeste 0 -- -- 100
2019-10-18 10:00:00 11.6 8 Sudoeste 27 Sur 0.2 -- -- 100
2019-10-18 09:00:00 11.9 11 Sudoeste 28 Sudoeste 2.6 -- -- 100
2019-10-18 08:00:00 11.9 8 Oeste 25 Sudoeste 0.8 -- -- 100
2019-10-18 07:00:00 11.9 10 Sudoeste 29 Sudoeste 0 -- -- 100
2019-10-18 06:00:00 12.2 10 Sudoeste 28 Sur 2.8 -- -- 100
2019-10-18 05:00:00 12.2 9 Sudoeste 23 Sudoeste 2.6 -- -- 100
2019-10-18 04:00:00 12.2 8 Sur 22 Sur 4.4 -- -- 100
2019-10-18 03:00:00 12.1 9 Sur 28 Sur 0.8 -- -- 100
2019-10-18 02:00:00 12.2 9 Sudoeste 30 Sudoeste 2 -- -- 100
2019-10-18 01:00:00 12.2 9 Sudoeste 28 Sudoeste 1 -- -- 100
2019-10-18 00:00:00 12.1 7 Sur 20 Oeste 1.4 -- -- 100
2019-10-17 23:00:00 12.2 8 Sur 19 Sur 0.8 -- -- 100
2019-10-17 22:00:00 12 6 Sur 17 Sur 2.6 -- -- 100
2019-10-17 21:00:00 11.9 8 Sur 21 Sur 2 -- -- 100
2019-10-17 20:00:00 11.8 7 Sur 19 Sudeste 1.4 -- -- 100
2019-10-17 19:00:00 11.6 6 Sur 14 Sur 1 -- -- 100
2019-10-17 18:00:00 11.7 6 Sudeste 16 Sudeste 0.4 -- -- 100
2019-10-17 17:00:00 11.6 4 Sur 13 Sudeste 1.2 -- -- 100
2019-10-17 16:00:00 11.4 3 Sudeste 14 Sudoeste 0.6 -- -- 100
2019-10-17 15:00:00 11.4 5 Sudeste 12 Sudeste 0.2 -- -- 100
2019-10-17 14:00:00 11.2 5 Sur 13 Sur 0.4 -- -- 100
2019-10-17 13:00:00 11.1 5 Sur 12 Sudoeste 0 -- -- 100
2019-10-17 12:00:00 10.4 4 Sur 14 Sur 0.4 -- -- 100
2019-10-17 11:00:00 9.7 4 Sur 12 Sur 1.8 -- -- 99
2019-10-17 10:00:00 9.4 3 Sudeste 9 Sudoeste 3 -- -- 99
2019-10-17 09:00:00 9.2 3 Sur 13 Sur 2 -- -- 98
2019-10-17 08:00:00 9.2 3 Sudoeste 12 Sudoeste 3 -- -- 98
2019-10-17 07:00:00 9 5 Sudoeste 16 Sudoeste 2 -- -- 98
2019-10-17 06:00:00 8.8 8 Sudoeste 17 Oeste 0 -- -- 94
2019-10-17 05:00:00 9.1 7 Sudoeste 13 Oeste 0 -- -- 92
2019-10-17 04:00:00 8.7 6 Oeste 13 Oeste 0 -- -- 92
2019-10-17 03:00:00 8.4 6 Oeste 13 Sudoeste 0 -- -- 89
2019-10-17 02:00:00 8.6 5 Sudoeste 12 Sudoeste 0 -- -- 87
2019-10-17 01:00:00 8.5 3 Sudoeste 8 Oeste 0 -- -- 87
2019-10-17 00:00:00 9.2 0 Calma 9 Sudoeste 0 -- -- 84
2019-10-16 23:00:00 9.5 3 Sur 10 Sudoeste 0 -- -- 81
2019-10-16 22:00:00 9.4 2 Sur 15 Sudoeste 0 -- -- 80
2019-10-16 21:00:00 8.8 3 Sudoeste 8 Sur 0 -- -- 82
2019-10-16 20:00:00 9.9 0 Calma 8 Sudoeste 0 -- -- 76
2019-10-16 19:00:00 11.1 4 Sudoeste 19 Oeste 0 -- -- 71
2019-10-16 18:00:00 12.5 7 Sudoeste 18 Sudoeste 0 -- -- 65
2019-10-16 17:00:00 13.1 6 Sudoeste 18 Sudoeste 0 -- -- 63
2019-10-16 16:00:00 13 4 Sudoeste 15 Sudoeste 0 -- -- 65
2019-10-16 15:00:00 13.8 5 Oeste 20 Sudoeste 0 -- -- 63
2019-10-16 14:00:00 13.5 6 Oeste 15 Oeste 0 -- -- 62
2019-10-16 13:00:00 11.3 4 Sur 14 Oeste 0 -- -- 69
2019-10-16 12:00:00 10.5 6 Sudoeste 19 Sudoeste 0 -- -- 69
2019-10-16 11:00:00 8.8 9 Sudoeste 17 Sudoeste 0 -- -- 71
2019-10-16 10:00:00 6.7 9 Oeste 17 Oeste 0 -- -- 89
2019-10-16 09:00:00 6 7 Oeste 17 Oeste 0 -- -- 97
2019-10-16 08:00:00 5.9 8 Sudoeste 17 Sudoeste 0 -- -- 97
2019-10-16 07:00:00 5.9 9 Oeste 14 Oeste 0 -- -- 95
2019-10-16 06:00:00 6 8 Oeste 15 Sudoeste 0 -- -- 93
2019-10-16 05:00:00 5.9 7 Oeste 11 Oeste 0 -- -- 92
2019-10-16 04:00:00 6.1 6 Oeste 10 Oeste 0 -- -- 92
2019-10-16 03:00:00 5.4 4 Sudoeste 8 Sudoeste 0 -- -- 92
2019-10-16 02:00:00 5.6 2 Sudoeste 8 Sudoeste 0 -- -- 88
2019-10-16 01:00:00 6.4 0 Calma 6 Sudoeste 0 -- -- 88
2019-10-16 00:00:00 6.7 3 Sudoeste 11 Sudoeste 0 -- -- 85
2019-10-15 23:00:00 7 5 Sudoeste 15 Oeste 0 -- -- 85
2019-10-15 22:00:00 6.5 5 Oeste 11 Oeste 0 -- -- 84
2019-10-15 21:00:00 6.9 6 Oeste 18 Sudoeste 0 -- -- 82
2019-10-15 20:00:00 7.6 6 Sudoeste 15 Sudoeste 0 -- -- 77
2019-10-15 19:00:00 8.9 8 Sudoeste 18 Sudoeste 0 -- -- 71
2019-10-15 18:00:00 10.5 8 Sudoeste 20 Sudoeste 0 -- -- 68
2019-10-15 17:00:00 12 8 Sudoeste 20 Sudoeste 0 -- -- 64
2019-10-15 16:00:00 12.6 6 Sudoeste 17 Sur 0 -- -- 60
2019-10-15 15:00:00 11.3 5 Sur 13 Este 0 -- -- 68
2019-10-15 14:00:00 12.5 5 Oeste 13 Oeste 0 -- -- 51
2019-10-15 13:00:00 11.4 5 Oeste 12 Noroeste 0 -- -- 62
2019-10-15 12:00:00 9.8 7 Noroeste 18 Noroeste 0 -- -- 69
2019-10-15 11:00:00 7.8 11 Noroeste 19 Noroeste 0 -- -- 72
2019-10-15 10:00:00 5 5 Noroeste 22 Noroeste 0 -- -- 74
2019-10-15 09:00:00 3.7 10 Noroeste 24 Noroeste 0 -- -- 77
2019-10-15 08:00:00 3.4 10 Noroeste 22 Norte 0 -- -- 79
2019-10-15 07:00:00 3.1 9 Noroeste 21 Noroeste 0 -- -- 83
2019-10-15 06:00:00 3.5 10 Noroeste 23 Noroeste 0 -- -- 84
2019-10-15 05:00:00 3.5 4 Noroeste 34 Noroeste 0 -- -- 86
2019-10-15 04:00:00 3.7 16 Noroeste 43 Noroeste 0 -- -- 86
2019-10-15 03:00:00 3.6 20 Noroeste 36 Noroeste 0 -- -- 87
2019-10-15 02:00:00 3.5 18 Noroeste 31 Noroeste 0 -- -- 92
2019-10-15 01:00:00 3.8 15 Noroeste 32 Oeste 0 -- -- 90
2019-10-15 00:00:00 4.3 14 Noroeste 32 Oeste 0 -- -- 89
2019-10-14 23:00:00 4.9 10 Oeste 26 Oeste 0 -- -- 91
2019-10-14 22:00:00 4.9 8 Oeste 17 Sudoeste 0 -- -- 94
2019-10-14 21:00:00 5.5 10 Oeste 24 Oeste 0 -- -- 92
2019-10-14 20:00:00 6.1 8 Oeste 29 Sudoeste 0 -- -- 96
2019-10-14 19:00:00 7.2 14 Oeste 36 Sudoeste 0 -- -- 100
2019-10-14 18:00:00 7.4 16 Sudoeste 33 Sudoeste 0.6 -- -- 100
2019-10-14 17:00:00 6.8 14 Sudoeste 31 Sudoeste 0.4 -- -- 100
2019-10-14 16:00:00 6.9 16 Sudoeste 47 Sudoeste 4.8 -- -- 98
2019-10-14 15:00:00 8.2 9 Sur 26 Sur 4.4 -- -- 97
2019-10-14 14:00:00 8.7 8 Sur 28 Sudoeste 0 -- -- 93
2019-10-14 13:00:00 9.6 10 Sudoeste 28 Sudoeste 0 -- -- 89
2019-10-14 12:00:00 8.8 10 Sudoeste 25 Sudoeste 0 -- -- 94
2019-10-14 11:00:00 8 10 Sudoeste 24 Sudoeste 0 -- -- 99
2019-10-14 10:00:00 8 10 Sudoeste 31 Sudoeste 0 -- -- 98
2019-10-14 09:00:00 8.2 13 Sudoeste 48 Sur 8.4 -- -- 96
2019-10-14 08:00:00 9.8 9 Sur 36 Sur 1.2 -- -- 97
2019-10-14 07:00:00 10.5 18 Sur 52 Sur 0 -- -- 96
2019-10-14 06:00:00 11.5 8 Sudeste 20 Sudeste 0 -- -- 89
2019-10-14 05:00:00 12.6 8 Sudeste 22 Sudeste 0 -- -- 80
2019-10-14 04:00:00 13.2 12 Este 26 Este 0 -- -- 71
2019-10-14 03:00:00 13.5 13 Este 29 Sudeste 0 -- -- 69
2019-10-14 02:00:00 13.6 15 Este 29 Sudeste 0 -- -- 67
2019-10-14 01:00:00 13.9 14 Este 34 Este 0 -- -- 67
2019-10-14 00:00:00 13.8 15 Este 27 Sudeste 0 -- -- 69
2019-10-13 23:00:00 13.6 12 Este 29 Este 0 -- -- 69
2019-10-13 22:00:00 13.3 9 Este 26 Este 0 -- -- 70
2019-10-13 21:00:00 13.3 11 Este 25 Sudeste 0 -- -- 71
2019-10-13 20:00:00 13.2 12 Este 23 Este 0 -- -- 72
2019-10-13 19:00:00 14.1 12 Este 29 Este 0 -- -- 72
2019-10-13 18:00:00 15.4 14 Este 28 Este 0 -- -- 69
2019-10-13 17:00:00 16.2 12 Este 26 Sudeste 0 -- -- 66
2019-10-13 16:00:00 16.2 9 Este 24 Sudeste 0 -- -- 65
2019-10-13 15:00:00 15.2 8 Este 24 Este 0 -- -- 69
2019-10-13 14:00:00 15.1 9 Este 23 Nordeste 0 -- -- 70
2019-10-13 13:00:00 13.9 8 Este 24 Este 0 -- -- 73
2019-10-13 12:00:00 12 8 Este 19 Este 0 -- -- 86
2019-10-13 11:00:00 11.2 4 Sudeste 16 Sur 0 -- -- 88
2019-10-13 10:00:00 10.3 5 Este 16 Este 0 -- -- 89
2019-10-13 09:00:00 10.3 3 Sudeste 16 Sudeste 0 -- -- 91
2019-10-13 08:00:00 10.7 5 Sudeste 17 Sudeste 0 -- -- 91
2019-10-13 07:00:00 11.3 4 Sur 18 Sur 0 -- -- 93
2019-10-13 06:00:00 11.7 6 Sudeste 17 Sur 0 -- -- 95
2019-10-13 05:00:00 12.3 7 Sudeste 19 Sudeste 0 -- -- 94
2019-10-13 04:00:00 13.4 8 Sudeste 22 Este 0 -- -- 92
2019-10-13 03:00:00 13.6 9 Sudeste 23 Sudeste 0 -- -- 92
2019-10-13 02:00:00 13.5 10 Este 20 Este 0 -- -- 86
2019-10-13 01:00:00 13.7 5 Sudeste 17 Sur 0 -- -- 85
2019-10-13 00:00:00 14.7 6 Sudeste 22 Sur 0 -- -- 78
2019-10-12 23:00:00 15.9 7 Sur 25 Sur 0 -- -- 67
2019-10-12 22:00:00 16.7 9 Sudeste 25 Sudeste 0 -- -- 61
2019-10-12 21:00:00 17.2 7 Sudeste 23 Sudeste 0 -- -- 50
2019-10-12 20:00:00 17.2 9 Sudeste 23 Este 0 -- -- 51
2019-10-12 19:00:00 18.8 9 Sudeste 32 Sudeste 0 -- -- 46
2019-10-12 18:00:00 19.7 12 Este 29 Este 0 -- -- 50
2019-10-12 17:00:00 20.4 14 Este 32 Este 0 -- -- 47
2019-10-12 16:00:00 20.5 14 Este 32 Este 0 -- -- 47
2019-10-12 15:00:00 20.3 12 Este 28 Este 0 -- -- 51
2019-10-12 14:00:00 19.6 13 Este 29 Sudeste 0 -- -- 55
2019-10-12 13:00:00 18.9 13 Este 35 Este 0 -- -- 56
2019-10-12 12:00:00 17.4 13 Este 34 Este 0 -- -- 60
2019-10-12 11:00:00 16 14 Este 32 Este 0 -- -- 68
2019-10-12 10:00:00 15.4 9 Sudeste 24 Este 0 -- -- 63
2019-10-12 09:00:00 15.4 8 Este 25 Este 0 -- -- 61
2019-10-12 08:00:00 15.6 10 Este 27 Sudeste 0 -- -- 59
2019-10-12 07:00:00 15.4 10 Este 25 Este 0 -- -- 66
2019-10-12 06:00:00 15.7 5 Sudeste 17 Sudeste 0 -- -- 62
2019-10-12 05:00:00 14.7 3 Sudeste 12 Sur 0 -- -- 70
2019-10-12 04:00:00 15.1 3 Sudeste 12 Sur 0 -- -- 69
2019-10-12 03:00:00 15.2 3 Sudeste 14 Sur 0 -- -- 68
2019-10-12 02:00:00 16.1 5 Sudeste 20 Sudeste 0 -- -- 65
2019-10-12 01:00:00 16.2 5 Sudeste 14 Sudeste 0 -- -- 60
2019-10-12 00:00:00 16.6 6 Sudeste 17 Sudeste 0 -- -- 63
2019-10-11 23:00:00 17.3 9 Este 24 Sudeste 0 -- -- 66
2019-10-11 22:00:00 17.3 9 Este 21 Este 0 -- -- 67
2019-10-11 21:00:00 17.4 9 Este 24 Este 0 -- -- 65
2019-10-11 20:00:00 17.3 11 Este 24 Sudeste 0 -- -- 67
2019-10-11 19:00:00 18.4 8 Este 18 Este 0 -- -- 66
2019-10-11 18:00:00 19.4 8 Este 25 Sudeste 0 -- -- 64
2019-10-11 17:00:00 20.1 10 Este 24 Sudeste 0 -- -- 62
2019-10-11 16:00:00 20.9 12 Este 31 Este 0 -- -- 60
2019-10-11 15:00:00 20.6 14 Este 29 Nordeste 0 -- -- 62
2019-10-11 14:00:00 20.1 14 Este 28 Este 0 -- -- 64
2019-10-11 13:00:00 18.9 13 Este 32 Este 0 -- -- 70
2019-10-11 12:00:00 17.8 15 Este 32 Este 0 -- -- 72
2019-10-11 11:00:00 16.7 13 Este 33 Este 0 -- -- 74
2019-10-11 10:00:00 14.8 17 Este 38 Este 0 -- -- 84
2019-10-11 09:00:00 14.1 14 Este 27 Este 0 -- -- 80
2019-10-11 08:00:00 13.9 13 Este 27 Este 0 -- -- 77
2019-10-11 07:00:00 15.8 11 Este 22 Este 0 -- -- 58
2019-10-11 06:00:00 15.7 10 Este 21 Este 0 -- -- 58
2019-10-11 05:00:00 16.4 12 Este 27 Este 0 -- -- 58
2019-10-11 04:00:00 16.2 11 Este 24 Este 0 -- -- 53
2019-10-11 03:00:00 16.4 11 Este 21 Este 0 -- -- 54
2019-10-11 02:00:00 16.5 9 Este 22 Este 0 -- -- 54
2019-10-11 01:00:00 16.3 5 Este 14 Este 0 -- -- 51
2019-10-11 00:00:00 16.1 6 Este 12 Nordeste 0 -- -- 50
2019-10-10 23:00:00 14.8 3 Este 6 Sudeste 0 -- -- 52
2019-10-10 22:00:00 14.6 2 Sudeste 3 Sudeste 0 -- -- 56
2019-10-10 21:00:00 15.4 2 Este 4 Este 0 -- -- 52
2019-10-10 20:00:00 17.2 3 Este 8 Este 0 -- -- 51
2019-10-10 19:00:00 19.3 3 Este 13 Este 0 -- -- 50
2019-10-10 18:00:00 20.8 5 Este 16 Este 0 -- -- 46
2019-10-10 17:00:00 21 8 Nordeste 22 Este 0 -- -- 47
2019-10-10 16:00:00 21.1 10 Este 27 Este 0 -- -- 49
2019-10-10 15:00:00 20 13 Este 30 Nordeste 0 -- -- 59
2019-10-10 14:00:00 19.3 15 Este 28 Este 0 -- -- 59
2019-10-10 13:00:00 19.2 13 Este 28 Este 0 -- -- 55
2019-10-10 12:00:00 17.5 10 Este 24 Este 0 -- -- 60
2019-10-10 11:00:00 16.3 11 Este 24 Este 0 -- -- 57
2019-10-10 10:00:00 14.3 11 Este 25 Nordeste 0 -- -- 57
2019-10-10 09:00:00 14.6 11 Este 24 Este 0 -- -- 54
2019-10-10 08:00:00 14.2 9 Este 21 Nordeste 0 -- -- 53
2019-10-10 07:00:00 14.1 10 Este 23 Este 0 -- -- 52
2019-10-10 06:00:00 13.8 12 Este 29 Nordeste 0 -- -- 52
2019-10-10 05:00:00 13.8 14 Este 30 Este 0 -- -- 56
2019-10-10 04:00:00 15.2 9 Este 27 Nordeste 0 -- -- 54
2019-10-10 03:00:00 15.6 9 Este 22 Este 0 -- -- 49
2019-10-10 02:00:00 15.8 6 Este 19 Nordeste 0 -- -- 48
2019-10-10 01:00:00 16.1 6 Este 15 Nordeste 0 -- -- 47
2019-10-10 00:00:00 16 6 Este 12 Nordeste 0 -- -- 47
2019-10-09 23:00:00 15.9 5 Este 9 Nordeste 0 -- -- 46
2019-10-09 22:00:00 15.7 2 Nordeste 10 Norte 0 -- -- 52
2019-10-09 21:00:00 16.4 4 Norte 13 Norte 0 -- -- 49
2019-10-09 20:00:00 18.3 6 Norte 12 Nordeste 0 -- -- 46
2019-10-09 19:00:00 21.7 3 Norte 9 Oeste 0 -- -- 39
2019-10-09 18:00:00 24.7 4 Oeste 10 Oeste 0 -- -- 32
2019-10-09 17:00:00 24.9 3 Sudoeste 14 Sudoeste 0 -- -- 31
2019-10-09 16:00:00 24.7 4 Sur 13 Oeste 0 -- -- 36
2019-10-09 15:00:00 24.4 4 Sudoeste 14 Sur 0 -- -- 37
2019-10-09 14:00:00 24.4 5 Sudoeste 12 Oeste 0 -- -- 34
2019-10-09 13:00:00 23.6 5 Sur 13 Sur 0 -- -- 43
2019-10-09 12:00:00 22.4 2 Sudeste 7 Sudeste 0 -- -- 42
2019-10-09 11:00:00 19.8 0 Calma 5 Sudoeste 0 -- -- 52
2019-10-09 10:00:00 16 0 Calma 3 Sudeste 0 -- -- 64
2019-10-09 09:00:00 15.3 0 Calma 6 Noroeste 0 -- -- 59
2019-10-09 08:00:00 15.5 0 Calma 10 Oeste 0 -- -- 65
2019-10-09 07:00:00 16.6 2 Sudoeste 15 Sudoeste 0 -- -- 61
2019-10-09 06:00:00 17 7 Oeste 10 Oeste 0 -- -- 60
2019-10-09 05:00:00 16.9 5 Oeste 9 Noroeste 0 -- -- 59
2019-10-09 04:00:00 17.5 5 Noroeste 11 Noroeste 0 -- -- 56
2019-10-09 03:00:00 17.8 7 Oeste 10 Oeste 0 -- -- 55
2019-10-09 02:00:00 16.7 2 Sudoeste 4 Oeste 0 -- -- 57
2019-10-09 01:00:00 17.4 0 Calma 10 Norte 0 -- -- 54
2019-10-09 00:00:00 17.7 5 Norte 12 Noroeste 0 -- -- 52
2019-10-08 23:00:00 17.3 5 Noroeste 13 Noroeste 0 -- -- 50
2019-10-08 22:00:00 18.1 3 Oeste 6 Sudoeste 0 -- -- 47
2019-10-08 21:00:00 19.2 2 Sudoeste 10 Sudoeste 0 -- -- 44
2019-10-08 20:00:00 21.1 6 Sudoeste 11 Oeste 0 -- -- 40
2019-10-08 19:00:00 23.8 5 Sudoeste 10 Sudoeste 0 -- -- 35
2019-10-08 18:00:00 26.2 5 Sudoeste 14 Sudoeste 0 -- -- 32
2019-10-08 17:00:00 26.9 3 Sudoeste 13 Oeste 0 -- -- 30
2019-10-08 16:00:00 26.4 4 Sur 11 Sudoeste 0 -- -- 31
2019-10-08 15:00:00 25.8 4 Sur 11 Oeste 0 -- -- 36
2019-10-08 14:00:00 25.6 4 Sur 13 Sur 0 -- -- 33
2019-10-08 13:00:00 24 3 Este 13 Este 0 -- -- 38
2019-10-08 12:00:00 21.5 6 Este 22 Este 0 -- -- 43
2019-10-08 11:00:00 20 8 Este 17 Sudeste 0 -- -- 47
2019-10-08 10:00:00 17.8 7 Este 15 Este 0 -- -- 50
2019-10-08 09:00:00 16.7 6 Este 17 Este 0 -- -- 49
2019-10-08 08:00:00 16.7 8 Este 18 Este 0 -- -- 48
2019-10-08 07:00:00 16.5 4 Este 19 Este 0 -- -- 48
2019-10-08 06:00:00 17.2 8 Este 21 Este 0 -- -- 46
2019-10-08 05:00:00 17.7 6 Este 11 Este 0 -- -- 48
2019-10-08 04:00:00 17.8 5 Este 12 Este 0 -- -- 47
2019-10-08 03:00:00 18 5 Este 13 Este 0 -- -- 45
2019-10-08 02:00:00 18 6 Este 13 Nordeste 0 -- -- 46
2019-10-08 01:00:00 17.2 5 Este 9 Nordeste 0 -- -- 49
2019-10-08 00:00:00 17.5 3 Nordeste 7 Nordeste 0 -- -- 47
2019-10-07 23:00:00 17.6 3 Norte 8 Norte 0 -- -- 46
2019-10-07 22:00:00 17.4 4 Noroeste 8 Norte 0 -- -- 45
2019-10-07 21:00:00 17.9 0 Calma 6 Noroeste 0 -- -- 45
2019-10-07 20:00:00 20.6 3 Sur 9 Oeste 0 -- -- 43
2019-10-07 19:00:00 24.2 3 Oeste 12 Sudoeste 0 -- -- 35
2019-10-07 18:00:00 26.5 4 Oeste 13 Oeste 0 -- -- 29
2019-10-07 17:00:00 26.8 3 Oeste 13 Oeste 0 -- -- 30
2019-10-07 16:00:00 27.4 8 Oeste 17 Oeste 0 -- -- 31
2019-10-07 15:00:00 26.2 3 Noroeste 13 Noroeste 0 -- -- 36
2019-10-07 14:00:00 25.8 3 Oeste 11 Oeste 0 -- -- 39
2019-10-07 13:00:00 25.4 4 Noroeste 15 Noroeste 0 -- -- 39
2019-10-07 12:00:00 23.1 3 Norte 7 Sur 0 -- -- 43
2019-10-07 11:00:00 21.2 0 Calma 12 Nordeste 0 -- -- 51
2019-10-07 10:00:00 18.1 4 Norte 14 Norte 0 -- -- 53
2019-10-07 09:00:00 15.9 6 Noroeste 12 Noroeste 0 -- -- 50
2019-10-07 08:00:00 15.7 3 Noroeste 7 Norte 0 -- -- 50
2019-10-07 07:00:00 15.1 0 Calma 5 Sudoeste 0 -- -- 43
2019-10-07 06:00:00 14.8 0 Calma 7 Noroeste 0 -- -- 35
2019-10-07 05:00:00 15.2 4 Norte 6 Norte 0 -- -- 31
2019-10-07 04:00:00 14.7 3 Sur 6 Sudoeste 0 -- -- 26
2019-10-07 03:00:00 14.9 4 Noroeste 9 Noroeste 0 -- -- 30
2019-10-07 02:00:00 16.7 6 Noroeste 19 Norte 0 -- -- 27
2019-10-07 01:00:00 16.7 4 Norte 18 Este 0 -- -- 31
2019-10-07 00:00:00 17 7 Nordeste 24 Noroeste 0 -- -- 35
2019-10-06 23:00:00 17.2 9 Norte 27 Noroeste 0 -- -- 39
2019-10-06 22:00:00 17.5 16 Noroeste 35 Noroeste 0 -- -- 38
2019-10-06 21:00:00 17.7 7 Noroeste 22 Norte 0 -- -- 36
2019-10-06 20:00:00 19 10 Noroeste 23 Noroeste 0 -- -- 33
2019-10-06 19:00:00 21.7 9 Noroeste 19 Oeste 0 -- -- 27
2019-10-06 18:00:00 24.2 8 Oeste 15 Noroeste 0 -- -- 31
2019-10-06 17:00:00 25.5 4 Oeste 15 Noroeste 0 -- -- 30
2019-10-06 16:00:00 24.8 6 Noroeste 16 Noroeste 0 -- -- 33
2019-10-06 15:00:00 24.4 5 Noroeste 15 Oeste 0 -- -- 34
2019-10-06 14:00:00 23.9 6 Oeste 13 Sudoeste 0 -- -- 41
2019-10-06 13:00:00 23.4 5 Sur 10 Sudoeste 0 -- -- 33
2019-10-06 12:00:00 21.4 3 Sur 8 Sudoeste 0 -- -- 31
2019-10-06 11:00:00 18.3 0 Calma 4 Sur 0 -- -- 45
2019-10-06 10:00:00 13.5 0 Calma 4 Sudeste 0 -- -- 55
2019-10-06 09:00:00 12.2 0 Calma 3 Oeste 0 -- -- 50
2019-10-06 08:00:00 12.5 0 Calma 3 Sudeste 0 -- -- 47
2019-10-06 07:00:00 13 0 Calma 5 Nordeste 0 -- -- 52
2019-10-06 06:00:00 13.1 3 Norte 6 Nordeste 0 -- -- 51
2019-10-06 05:00:00 13.2 5 Oeste 8 Noroeste 0 -- -- 32
2019-10-06 04:00:00 13.5 2 Norte 6 Norte 0 -- -- 38
2019-10-06 03:00:00 13.9 0 Calma 8 Nordeste 0 -- -- 50
2019-10-06 02:00:00 14.1 6 Nordeste 13 Norte 0 -- -- 43
2019-10-06 01:00:00 13.8 6 Noroeste 17 Noroeste 0 -- -- 59
2019-10-06 00:00:00 14.5 6 Noroeste 14 Noroeste 0 -- -- 62
2019-10-05 23:00:00 14.4 4 Nordeste 15 Norte 0 -- -- 70
2019-10-05 22:00:00 14.8 7 Noroeste 10 Noroeste 0 -- -- 70
2019-10-05 21:00:00 16.2 6 Noroeste 13 Oeste 0 -- -- 64
2019-10-05 20:00:00 17.7 4 Noroeste 13 Sudoeste 0 -- -- 57
2019-10-05 19:00:00 20.4 6 Sudoeste 17 Oeste 0 -- -- 50
2019-10-05 18:00:00 22.2 6 Sudoeste 16 Sudoeste 0 -- -- 44
2019-10-05 17:00:00 23.5 8 Oeste 17 Oeste 0 -- -- 42
2019-10-05 16:00:00 23.4 6 Oeste 17 Oeste 0 -- -- 48
2019-10-05 15:00:00 22.8 6 Sudoeste 14 Sudoeste 0 -- -- 49
2019-10-05 14:00:00 23.2 4 Oeste 12 Sur 0 -- -- 51
2019-10-05 13:00:00 21.2 2 Sudeste 9 Oeste 0 -- -- 54
2019-10-05 12:00:00 19.6 3 Este 12 Nordeste 0 -- -- 56
2019-10-05 11:00:00 17.9 4 Este 10 Este 0 -- -- 60
2019-10-05 10:00:00 13.8 3 Este 9 Nordeste 0 -- -- 76
2019-10-05 09:00:00 11.7 2 Este 3 Este 0 -- -- 83
2019-10-05 08:00:00 11.8 2 Sudeste 3 Sur 0 -- -- 82
2019-10-05 07:00:00 11.9 0 Calma 4 Sudoeste 0 -- -- 80
2019-10-05 06:00:00 12 0 Calma 3 Sudoeste 0 -- -- 79
2019-10-05 05:00:00 12 0 Calma 5 Norte 0 -- -- 74
2019-10-05 04:00:00 12.7 3 Noroeste 6 Noroeste 0 -- -- 69
2019-10-05 03:00:00 12.9 3 Norte 9 Norte 0 -- -- 69
2019-10-05 02:00:00 13.4 3 Norte 15 Norte 0 -- -- 66
2019-10-05 01:00:00 13.6 6 Norte 11 Noroeste 0 -- -- 68
2019-10-05 00:00:00 14.4 3 Oeste 9 Oeste 0 -- -- 66
2019-10-04 23:00:00 15.1 3 Oeste 13 Oeste 0 -- -- 64
2019-10-04 22:00:00 15.4 4 Oeste 12 Oeste 0 -- -- 60
2019-10-04 21:00:00 14.9 0 Calma 4 Sur 0 -- -- 55
2019-10-04 20:00:00 17.2 2 Sur 13 Sudoeste 0 -- -- 53
2019-10-04 19:00:00 20.1 5 Sudoeste 13 Sudoeste 0 -- -- 47
2019-10-04 18:00:00 22.7 4 Sudoeste 15 Oeste 0 -- -- 43
2019-10-04 17:00:00 24.2 4 Sudoeste 13 Oeste 0 -- -- 36
2019-10-04 16:00:00 24.1 5 Oeste 13 Oeste 0 -- -- 38
2019-10-04 15:00:00 23.5 4 Sudoeste 14 Oeste 0 -- -- 36
2019-10-04 14:00:00 22.1 2 Nordeste 12 Este 0 -- -- 42
2019-10-04 13:00:00 20.7 5 Este 18 Este 0 -- -- 43
2019-10-04 12:00:00 18.7 9 Este 22 Este 0 -- -- 45
2019-10-04 11:00:00 17.1 9 Este 20 Este 0 -- -- 48
2019-10-04 10:00:00 15.6 7 Este 18 Este 0 -- -- 52
2019-10-04 09:00:00 14.1 8 Este 19 Este 0 -- -- 54
2019-10-04 08:00:00 13.7 0 Calma 15 Este 0 -- -- 52
2019-10-04 07:00:00 14.7 4 Este 14 Nordeste 0 -- -- 47
2019-10-04 06:00:00 13.8 4 Este 7 Este 0 -- -- 53
2019-10-04 05:00:00 15.1 0 Calma 9 Este 0 -- -- 46
2019-10-04 04:00:00 14.7 3 Sudeste 6 Sur 0 -- -- 45
2019-10-04 03:00:00 14.3 2 Norte 13 Norte 0 -- -- 46
2019-10-04 02:00:00 14.5 4 Norte 10 Norte 0 -- -- 44
2019-10-04 01:00:00 14.8 4 Norte 10 Noroeste 0 -- -- 42
2019-10-04 00:00:00 15.6 5 Norte 16 Norte 0 -- -- 42
2019-10-03 23:00:00 15.1 8 Noroeste 14 Noroeste 0 -- -- 45
2019-10-03 22:00:00 16.7 5 Noroeste 24 Oeste 0 -- -- 40
2019-10-03 21:00:00 16.5 6 Noroeste 12 Noroeste 0 -- -- 41
2019-10-03 20:00:00 18.3 2 Oeste 10 Oeste 0 -- -- 42
2019-10-03 19:00:00 21.3 5 Oeste 17 Oeste 0 -- -- 36
2019-10-03 18:00:00 23.3 8 Noroeste 19 Noroeste 0 -- -- 30
2019-10-03 17:00:00 24.2 6 Oeste 18 Noroeste 0 -- -- 32
2019-10-03 16:00:00 23.9 5 Oeste 15 Oeste 0 -- -- 31
2019-10-03 15:00:00 23.1 5 Oeste 12 Oeste 0 -- -- 31
2019-10-03 14:00:00 22.9 6 Oeste 14 Oeste 0 -- -- 35
2019-10-03 13:00:00 21 3 Norte 10 Noroeste 0 -- -- 34
2019-10-03 12:00:00 19.3 4 Noroeste 13 Oeste 0 -- -- 38
2019-10-03 11:00:00 16.6 3 Noroeste 12 Oeste 0 -- -- 44
2019-10-03 10:00:00 12.3 5 Oeste 9 Oeste 0 -- -- 56
2019-10-03 09:00:00 10 2 Oeste 5 Sudoeste 0 -- -- 63
2019-10-03 08:00:00 10.5 0 Calma 10 Sudoeste 0 -- -- 59
2019-10-03 07:00:00 10.4 4 Oeste 11 Sudoeste 0 -- -- 61
2019-10-03 06:00:00 11 0 Calma 7 Este 0 -- -- 58
2019-10-03 05:00:00 11.9 4 Este 11 Este 0 -- -- 55
2019-10-03 04:00:00 12.5 5 Este 18 Este 0 -- -- 54
2019-10-03 03:00:00 12.6 8 Este 21 Este 0 -- -- 54
2019-10-03 02:00:00 12.5 9 Este 20 Este 0 -- -- 54
2019-10-03 01:00:00 13.1 7 Este 17 Nordeste 0 -- -- 53
2019-10-03 00:00:00 13.4 6 Este 16 Nordeste 0 -- -- 52
2019-10-02 23:00:00 12.9 5 Este 12 Este 0 -- -- 58
2019-10-02 22:00:00 13.1 6 Nordeste 11 Nordeste 0 -- -- 56
2019-10-02 21:00:00 13.2 0 Calma 14 Noroeste 0 -- -- 52
2019-10-02 20:00:00 15.1 8 Norte 18 Noroeste 0 -- -- 47
2019-10-02 19:00:00 17.9 7 Norte 21 Noroeste 0 -- -- 42
2019-10-02 18:00:00 20.4 6 Norte 14 Noroeste 0 -- -- 37
2019-10-02 17:00:00 22.8 6 Noroeste 19 Noroeste 0 -- -- 29
2019-10-02 16:00:00 23.1 9 Noroeste 23 Noroeste 0 -- -- 23
2019-10-02 15:00:00 23 10 Oeste 20 Sudoeste 0 -- -- 24
2019-10-02 14:00:00 22.2 5 Sudoeste 15 Sudoeste 0 -- -- 31
2019-10-02 13:00:00 21.4 8 Sudoeste 21 Oeste 0 -- -- 29
2019-10-02 12:00:00 20.1 9 Noroeste 25 Nordeste 0 -- -- 25
2019-10-02 11:00:00 17.9 14 Noroeste 28 Noroeste 0 -- -- 24
2019-10-02 10:00:00 14.7 8 Norte 27 Noroeste 0 -- -- 24
2019-10-02 09:00:00 12.4 8 Norte 24 Noroeste 0 -- -- 25
2019-10-02 08:00:00 12.6 15 Noroeste 30 Noroeste 0 -- -- 18
2019-10-02 07:00:00 11.6 12 Noroeste 24 Norte 0 -- -- 22
2019-10-02 06:00:00 12.1 10 Noroeste 22 Noroeste 0 -- -- 27
2019-10-02 05:00:00 11.6 13 Noroeste 23 Noroeste 0 -- -- 36
2019-10-02 04:00:00 12.1 14 Noroeste 27 Noroeste 0 -- -- 39
2019-10-02 03:00:00 12.4 17 Noroeste 38 Norte 0 -- -- 52
2019-10-02 02:00:00 11.6 14 Noroeste 35 Noroeste 0 -- -- 67
2019-10-02 01:00:00 12.5 18 Noroeste 36 Noroeste 0 -- -- 61
2019-10-02 00:00:00 12.7 17 Noroeste 37 Noroeste 0 -- -- 68
2019-10-01 23:00:00 13.9 18 Noroeste 37 Noroeste 0 -- -- 63
2019-10-01 22:00:00 14.7 18 Noroeste 33 Noroeste 0 -- -- 59
2019-10-01 21:00:00 15.1 11 Noroeste 26 Noroeste 0 -- -- 61
2019-10-01 20:00:00 15.8 13 Noroeste 38 Noroeste 0 -- -- 59
2019-10-01 19:00:00 17.3 16 Noroeste 45 Noroeste 0 -- -- 53
2019-10-01 18:00:00 19 21 Noroeste 39 Oeste 0 -- -- 47
2019-10-01 17:00:00 20.1 17 Noroeste 35 Noroeste 0 -- -- 51
2019-10-01 16:00:00 19.7 15 Noroeste 34 Noroeste 0 -- -- 53
2019-10-01 15:00:00 20.3 15 Noroeste 37 Noroeste 0 -- -- 53
2019-10-01 14:00:00 20.2 12 Noroeste 30 Norte 0 -- -- 51
2019-10-01 13:00:00 20.3 8 Noroeste 30 Noroeste 0 -- -- 48
2019-10-01 12:00:00 19.2 12 Noroeste 29 Noroeste 0 -- -- 43
2019-10-01 11:00:00 16.5 17 Noroeste 28 Noroeste 0 -- -- 52
2019-10-01 10:00:00 14.6 6 Noroeste 14 Noroeste 0 -- -- 55
2019-10-01 09:00:00 11.8 0 Calma 3 Oeste 0 -- -- 37
2019-10-01 08:00:00 12.2 2 Sudoeste 8 Noroeste 0 -- -- 28
2019-10-01 07:00:00 13.8 3 Oeste 12 Sudoeste 0 -- -- 56
2019-10-01 06:00:00 15 7 Oeste 15 Sudoeste 0 -- -- 66
2019-10-01 05:00:00 16 5 Sudoeste 14 Sudoeste 0 -- -- 51
2019-10-01 04:00:00 15.8 3 Sudoeste 12 Sudoeste 0 -- -- 52
2019-10-01 03:00:00 15.7 5 Sudoeste 11 Oeste 0 -- -- 49
2019-10-01 02:00:00 15.6 5 Oeste 13 Sudoeste 0 -- -- 46
2019-10-01 01:00:00 14.5 0 Calma 5 Sudoeste 0 -- -- 39
2019-10-01 00:00:00 14.7 0 Calma 4 Sur 0 -- -- 39
2019-09-30 23:00:00 15.6 3 Oeste 6 Oeste 0 -- -- 41
2019-09-30 22:00:00 15.7 0 Calma 5 Sur 0 -- -- 43
2019-09-30 21:00:00 17.1 0 Calma 8 Oeste 0 -- -- 38
2019-09-30 20:00:00 19.5 3 Oeste 8 Oeste 0 -- -- 35
2019-09-30 19:00:00 22 3 Sudoeste 15 Oeste 0 -- -- 30
2019-09-30 18:00:00 23.1 5 Sur 13 Oeste 0 -- -- 28
2019-09-30 17:00:00 23.8 5 Sur 12 Sur 0 -- -- 27
2019-09-30 16:00:00 24.6 3 Sudeste 13 Este 0 -- -- 24
2019-09-30 15:00:00 24.2 4 Este 14 Sudeste 0 -- -- 33
2019-09-30 14:00:00 23.1 6 Nordeste 16 Nordeste 0 -- -- 34
2019-09-30 13:00:00 22.7 6 Este 14 Este 0 -- -- 33
2019-09-30 12:00:00 21.8 6 Este 15 Este 0 -- -- 33
2019-09-30 11:00:00 20 6 Este 12 Este 0 -- -- 37
2019-09-30 10:00:00 17 5 Este 12 Este 0 -- -- 42
2019-09-30 09:00:00 15.2 5 Este 12 Nordeste 0 -- -- 41
2019-09-30 08:00:00 14.7 5 Este 9 Este 0 -- -- 34
2019-09-30 07:00:00 14.4 0 Calma 4 Nordeste 0 -- -- 35
2019-09-30 06:00:00 14.2 0 Calma 4 Nordeste 0 -- -- 37
2019-09-30 05:00:00 15.2 2 Este 9 Este 0 -- -- 38
2019-09-30 04:00:00 15.8 4 Este 10 Este 0 -- -- 38
2019-09-30 03:00:00 16 3 Este 10 Nordeste 0 -- -- 39
2019-09-30 02:00:00 16.7 5 Nordeste 10 Nordeste 0 -- -- 36
2019-09-30 01:00:00 15.6 5 Norte 11 Norte 0 -- -- 42
2019-09-30 00:00:00 15.4 5 Norte 13 Norte 0 -- -- 40
2019-09-29 23:00:00 14.8 4 Norte 8 Noroeste 0 -- -- 39
2019-09-29 22:00:00 15.1 4 Noroeste 6 Noroeste 0 -- -- 37
2019-09-29 21:00:00 15.9 2 Oeste 4 Oeste 0 -- -- 35
2019-09-29 20:00:00 19.1 0 Calma 6 Sudoeste 0 -- -- 32
2019-09-29 19:00:00 22.4 3 Oeste 13 Sudoeste 0 -- -- 28
2019-09-29 18:00:00 24.8 5 Sudoeste 13 Sudoeste 0 -- -- 19
2019-09-29 17:00:00 26 5 Oeste 12 Oeste 0 -- -- 20
2019-09-29 16:00:00 25.3 5 Sudoeste 15 Sudoeste 0 -- -- 22
2019-09-29 15:00:00 25.4 7 Oeste 14 Oeste 0 -- -- 28
2019-09-29 14:00:00 24.3 5 Noroeste 14 Sudoeste 0 -- -- 33
2019-09-29 13:00:00 22.7 4 Sudoeste 13 Sudoeste 0 -- -- 28
2019-09-29 12:00:00 21.6 5 Sur 12 Sur 0 -- -- 35
2019-09-29 11:00:00 19.4 4 Sudeste 9 Sur 0 -- -- 44
2019-09-29 10:00:00 14.8 0 Calma 4 Sudeste 0 -- -- 59
2019-09-29 09:00:00 12.5 0 Calma 3 Este 0 -- -- 60
2019-09-29 08:00:00 13.3 0 Calma 4 Oeste 0 -- -- 53
2019-09-29 07:00:00 13.8 0 Calma 3 Oeste 0 -- -- 50
2019-09-29 06:00:00 13.7 2 Oeste 3 Oeste 0 -- -- 52
2019-09-29 05:00:00 13.7 0 Calma 2 Oeste 0 -- -- 52
2019-09-29 04:00:00 14.1 0 Calma 3 Sudoeste 0 -- -- 51
2019-09-29 03:00:00 14.8 2 Oeste 4 Oeste 0 -- -- 47
2019-09-29 02:00:00 15.3 4 Oeste 6 Oeste 0 -- -- 46
2019-09-29 01:00:00 15.6 4 Oeste 8 Oeste 0 -- -- 44
2019-09-29 00:00:00 15 4 Oeste 6 Oeste 0 -- -- 47
2019-09-28 23:00:00 15.3 4 Oeste 6 Oeste 0 -- -- 45
2019-09-28 22:00:00 15.1 0 Calma 4 Oeste 0 -- -- 44
2019-09-28 21:00:00 15.8 0 Calma 3 Sudoeste 0 -- -- 41
2019-09-28 20:00:00 18.5 0 Calma 6 Sur 0 -- -- 41
2019-09-28 19:00:00 21.1 2 Sur 10 Sudoeste 0 -- -- 34
2019-09-28 18:00:00 23.4 3 Sur 12 Sudeste 0 -- -- 31
2019-09-28 17:00:00 24.2 2 Sur 18 Sur 0 -- -- 34
2019-09-28 16:00:00 24.1 4 Sur 14 Sudoeste 0 -- -- 39
2019-09-28 15:00:00 24.6 7 Oeste 13 Oeste 0 -- -- 37
2019-09-28 14:00:00 23.6 6 Oeste 13 Sudoeste 0 -- -- 38
2019-09-28 13:00:00 22.1 4 Este 14 Este 0 -- -- 40
2019-09-28 12:00:00 21.1 4 Este 12 Este 0 -- -- 40
2019-09-28 11:00:00 18.8 5 Este 10 Nordeste 0 -- -- 49
2019-09-28 10:00:00 15.5 3 Este 5 Este 0 -- -- 61
2019-09-28 09:00:00 13.2 2 Sudeste 5 Sudeste 0 -- -- 55
2019-09-28 08:00:00 12.7 2 Sur 8 Sur 0 -- -- 55
2019-09-28 07:00:00 12.4 2 Sudeste 3 Sudeste 0 -- -- 54
2019-09-28 06:00:00 12.9 3 Sudeste 5 Sudeste 0 -- -- 53
2019-09-28 05:00:00 12.9 0 Calma 3 Sur 0 -- -- 51
2019-09-28 04:00:00 13.6 0 Calma 7 Este 0 -- -- 50
2019-09-28 03:00:00 14.7 5 Este 11 Este 0 -- -- 47
2019-09-28 02:00:00 15.4 6 Este 14 Este 0 -- -- 45
2019-09-28 01:00:00 15.2 7 Este 15 Este 0 -- -- 47
2019-09-28 00:00:00 14.3 4 Este 11 Este 0 -- -- 49
2019-09-27 23:00:00 15 5 Norte 12 Norte 0 -- -- 48
2019-09-27 22:00:00 15.2 5 Norte 20 Nordeste 0 -- -- 49
2019-09-27 21:00:00 15.3 3 Norte 8 Oeste 0 -- -- 47
2019-09-27 20:00:00 18.7 4 Sudoeste 15 Sudoeste 0 -- -- 38
2019-09-27 19:00:00 21.3 6 Oeste 21 Oeste 0 -- -- 33
2019-09-27 18:00:00 23.3 11 Oeste 22 Sudoeste 0 -- -- 30
2019-09-27 17:00:00 24.3 12 Oeste 22 Oeste 0 -- -- 28
2019-09-27 16:00:00 24.9 9 Oeste 22 Oeste 0 -- -- 28
2019-09-27 15:00:00 24.8 7 Oeste 15 Oeste 0 -- -- 26
2019-09-27 14:00:00 24.9 6 Oeste 13 Noroeste 0 -- -- 32
2019-09-27 13:00:00 23.8 5 Noroeste 13 Noroeste 0 -- -- 31
2019-09-27 12:00:00 21.9 7 Noroeste 15 Noroeste 0 -- -- 37
2019-09-27 11:00:00 19.1 2 Norte 7 Oeste 0 -- -- 45
2019-09-27 10:00:00 15.2 3 Noroeste 9 Noroeste 0 -- -- 58
2019-09-27 09:00:00 12.7 2 Norte 6 Noroeste 0 -- -- 59
2019-09-27 08:00:00 12.3 0 Calma 5 Noroeste 0 -- -- 58
2019-09-27 07:00:00 12.4 0 Calma 6 Norte 0 -- -- 58
2019-09-27 06:00:00 13.4 2 Norte 8 Norte 0 -- -- 53
2019-09-27 05:00:00 13.6 4 Noroeste 10 Noroeste 0 -- -- 56
2019-09-27 04:00:00 14 0 Calma 7 Este 0 -- -- 59
2019-09-27 03:00:00 14.4 3 Nordeste 9 Nordeste 0 -- -- 59
2019-09-27 02:00:00 15.2 4 Este 9 Nordeste 0 -- -- 61
2019-09-27 01:00:00 14.2 4 Norte 12 Norte 0 -- -- 64
2019-09-27 00:00:00 14.3 5 Norte 10 Noroeste 0 -- -- 64
2019-09-26 23:00:00 14.6 4 Noroeste 12 Noroeste 0 -- -- 63
2019-09-26 22:00:00 15.8 5 Noroeste 12 Oeste 0 -- -- 60
2019-09-26 21:00:00 15.6 2 Sudoeste 8 Sudoeste 0 -- -- 58
2019-09-26 20:00:00 18.5 4 Sudoeste 12 Sudoeste 0 -- -- 53
2019-09-26 19:00:00 21.1 6 Sudoeste 13 Sudoeste 0 -- -- 47
2019-09-26 18:00:00 23.2 6 Oeste 17 Oeste 0 -- -- 41
2019-09-26 17:00:00 23.7 6 Oeste 14 Noroeste 0 -- -- 41
2019-09-26 16:00:00 22.5 6 Sudoeste 12 Sudoeste 0 -- -- 43
2019-09-26 15:00:00 21.6 4 Este 13 Este 0 -- -- 48
2019-09-26 14:00:00 20.6 6 Nordeste 16 Nordeste 0 -- -- 51
2019-09-26 13:00:00 19.9 6 Este 19 Este 0 -- -- 53
2019-09-26 12:00:00 18.2 7 Este 23 Este 0 -- -- 63
2019-09-26 11:00:00 17.2 7 Este 20 Este 0 -- -- 67
2019-09-26 10:00:00 15.3 8 Este 16 Este 0 -- -- 74
2019-09-26 09:00:00 13.6 7 Este 17 Este 0 -- -- 72
2019-09-26 08:00:00 13.3 3 Este 9 Este 0 -- -- 69
2019-09-26 07:00:00 13.6 3 Este 10 Este 0 -- -- 67
2019-09-26 06:00:00 13.6 4 Este 9 Este 0 -- -- 66
2019-09-26 05:00:00 13.5 4 Este 9 Este 0 -- -- 66
2019-09-26 04:00:00 13.4 4 Este 8 Este 0 -- -- 68
2019-09-26 03:00:00 13.1 4 Este 9 Este 0 -- -- 70
2019-09-26 02:00:00 13.9 0 Calma 7 Este 0 -- -- 65
2019-09-26 01:00:00 13.4 3 Este 7 Este 0 -- -- 65
2019-09-26 00:00:00 13.7 0 Calma 4 Este 0 -- -- 69
2019-09-25 23:00:00 14.3 0 Calma 6 Nordeste 0 -- -- 69
2019-09-25 22:00:00 14.6 3 Nordeste 6 Este 0 -- -- 69
2019-09-25 21:00:00 14.7 3 Norte 12 Norte 0 -- -- 68
2019-09-25 20:00:00 16.6 5 Noroeste 13 Norte 0 -- -- 60
2019-09-25 19:00:00 18.6 6 Norte 14 Noroeste 0 -- -- 55
2019-09-25 18:00:00 20.7 5 Noroeste 14 Noroeste 0 -- -- 48
2019-09-25 17:00:00 20.7 3 Nordeste 14 Oeste 0 -- -- 47
2019-09-25 16:00:00 21.8 7 Oeste 17 Noroeste 0 -- -- 47
2019-09-25 15:00:00 21 6 Sudoeste 13 Sudoeste 0 -- -- 51
2019-09-25 14:00:00 20.3 6 Oeste 15 Oeste 0 -- -- 57
2019-09-25 13:00:00 17.8 5 Oeste 11 Sudoeste 0 -- -- 69
2019-09-25 12:00:00 17.7 4 Sur 11 Sur 0 -- -- 69
2019-09-25 11:00:00 15.8 3 Este 9 Este 0 -- -- 62
2019-09-25 10:00:00 12.7 3 Norte 10 Noroeste 0 -- -- 65
2019-09-25 09:00:00 10 4 Norte 14 Noroeste 0 -- -- 68
2019-09-25 08:00:00 10 7 Noroeste 15 Noroeste 0 -- -- 67
2019-09-25 07:00:00 10.1 7 Norte 24 Noroeste 0 -- -- 74
2019-09-25 06:00:00 10.5 8 Nordeste 22 Nordeste 0 -- -- 72
2019-09-25 05:00:00 9.5 4 Norte 17 Noroeste 0 -- -- 81
2019-09-25 04:00:00 10.4 9 Norte 21 Noroeste 0 -- -- 86
2019-09-25 03:00:00 10.8 9 Norte 26 Noroeste 0 -- -- 88
2019-09-25 02:00:00 11.2 7 Noroeste 21 Oeste 0 -- -- 87
2019-09-25 01:00:00 12.1 13 Noroeste 24 Noroeste 0 -- -- 88
2019-09-25 00:00:00 13 12 Oeste 22 Oeste 0 -- -- 88
2019-09-24 23:00:00 13.3 8 Sudoeste 24 Sudoeste 0 -- -- 91
2019-09-24 22:00:00 14.1 13 Sudoeste 28 Sur 0 -- -- 87
2019-09-24 21:00:00 15.4 13 Sudoeste 26 Sudoeste 0 -- -- 94
2019-09-24 20:00:00 15.9 12 Sudoeste 27 Sudoeste 0 -- -- 90
2019-09-24 19:00:00 16.4 13 Sudoeste 29 Sudoeste 0 -- -- 88
2019-09-24 18:00:00 16.8 14 Sudoeste 26 Oeste 0 -- -- 87
2019-09-24 17:00:00 17.6 13 Sudoeste 26 Oeste 0 -- -- 81
2019-09-24 16:00:00 19.5 15 Sudoeste 29 Sudoeste 0 -- -- 70
2019-09-24 15:00:00 18.4 11 Oeste 24 Sudoeste 0 -- -- 79
2019-09-24 14:00:00 18.7 9 Sudoeste 18 Sudoeste 0 -- -- 72
2019-09-24 13:00:00 20.2 8 Sudoeste 17 Sudoeste 0 -- -- 53
2019-09-24 12:00:00 17.5 7 Sudoeste 17 Sudoeste 0 -- -- 62
2019-09-24 11:00:00 15.9 8 Sudoeste 17 Sudoeste 0 -- -- 61
2019-09-24 10:00:00 13.5 8 Sudoeste 18 Sudoeste 0 -- -- 57
2019-09-24 09:00:00 12.1 8 Sudoeste 16 Sudoeste 0 -- -- 67
2019-09-24 08:00:00 12 9 Sudoeste 19 Oeste 0 -- -- 71
2019-09-24 07:00:00 11.7 8 Sudoeste 17 Sudoeste 0 -- -- 76
2019-09-24 06:00:00 11.5 8 Oeste 18 Sudoeste 0 -- -- 78
2019-09-24 05:00:00 11.1 5 Sudoeste 13 Sudoeste 0 -- -- 77
2019-09-24 04:00:00 11 3 Sudoeste 10 Sudoeste 0 -- -- 75
2019-09-24 03:00:00 11 3 Oeste 6 Oeste 0 -- -- 77
2019-09-24 02:00:00 10.6 0 Calma 5 Sudeste 0 -- -- 76
2019-09-24 01:00:00 10.5 3 Sudeste 5 Sudeste 0 -- -- 72
2019-09-24 00:00:00 10.7 2 Sudeste 4 Sudeste 0 -- -- 70
2019-09-23 23:00:00 11 3 Sudeste 4 Sudeste 0 -- -- 71
2019-09-23 22:00:00 12 3 Oeste 5 Oeste 0 -- -- 71
2019-09-23 21:00:00 12.9 2 Sudoeste 6 Sudoeste 0 -- -- 66
2019-09-23 20:00:00 15 3 Sudoeste 12 Sudoeste 0 -- -- 58
2019-09-23 19:00:00 17.2 5 Sudoeste 10 Sudoeste 0 -- -- 48
2019-09-23 18:00:00 19.1 4 Oeste 13 Oeste 0 -- -- 48
2019-09-23 17:00:00 20.3 7 Oeste 14 Oeste 0 -- -- 52
2019-09-23 16:00:00 19.9 5 Oeste 13 Oeste 0 -- -- 57
2019-09-23 15:00:00 18.4 6 Sudoeste 14 Oeste 0 -- -- 56
2019-09-23 14:00:00 18.4 6 Oeste 14 Sudoeste 0 -- -- 65
2019-09-23 13:00:00 16.4 4 Sudoeste 12 Sudoeste 0 -- -- 75
2019-09-23 12:00:00 15.6 3 Sur 10 Sur 0 -- -- 73
2019-09-23 11:00:00 13.3 4 Nordeste 12 Nordeste 0 -- -- 73
2019-09-23 10:00:00 10.4 3 Sur 5 Sudoeste 0 -- -- 83
2019-09-23 09:00:00 8.5 0 Calma 4 Sudoeste 0 -- -- 94
2019-09-23 08:00:00 7.8 3 Oeste 5 Sudoeste 0 -- -- 89
2019-09-23 07:00:00 7.4 3 Oeste 6 Oeste 0 -- -- 92
2019-09-23 06:00:00 7.5 0 Calma 7 Oeste 0 -- -- 92
2019-09-23 05:00:00 7.9 3 Oeste 7 Oeste 0 -- -- 91
2019-09-23 04:00:00 8.1 2 Sudeste 5 Sur 0 -- -- 90
2019-09-23 03:00:00 8.4 0 Calma 3 Oeste 0 -- -- 91
2019-09-23 02:00:00 8.4 2 Noroeste 5 Norte 0 -- -- 91
2019-09-23 01:00:00 8.4 2 Oeste 3 Noroeste 0 -- -- 91
2019-09-23 00:00:00 9.1 0 Calma 11 Sur 0 -- -- 88
2019-09-22 23:00:00 10.1 5 Sudoeste 12 Sudoeste 0 -- -- 87
2019-09-22 22:00:00 10.7 5 Sudoeste 18 Sudoeste 0 -- -- 86
2019-09-22 21:00:00 11.2 4 Sudoeste 14 Sudoeste 0 -- -- 89
2019-09-22 20:00:00 12.6 7 Sudoeste 20 Oeste 0 -- -- 86
2019-09-22 19:00:00 13.7 10 Sudoeste 23 Sudoeste 0 -- -- 81
2019-09-22 18:00:00 15.3 10 Sudoeste 26 Oeste 0 -- -- 76
2019-09-22 17:00:00 15.9 15 Oeste 27 Sudoeste 0 -- -- 73
2019-09-22 16:00:00 16.1 11 Oeste 27 Sudoeste 0 -- -- 77
2019-09-22 15:00:00 15.9 12 Sudoeste 23 Sudoeste 0 -- -- 72
2019-09-22 14:00:00 15.4 7 Oeste 21 Noroeste 0 -- -- 80
2019-09-22 13:00:00 14.4 12 Noroeste 21 Noroeste 0 -- -- 83
2019-09-22 12:00:00 12.7 8 Noroeste 19 Noroeste 0 -- -- 92
2019-09-22 11:00:00 12 9 Noroeste 19 Noroeste 0 -- -- 96
2019-09-22 10:00:00 10.2 6 Noroeste 17 Oeste 0 -- -- 100
2019-09-22 09:00:00 9 6 Noroeste 12 Noroeste 0 -- -- 100
2019-09-22 08:00:00 8.5 3 Noroeste 8 Oeste 0 -- -- 96
2019-09-22 07:00:00 9.8 5 Oeste 13 Oeste 0.2 -- -- 98
2019-09-22 06:00:00 11.3 9 Sudoeste 22 Sudoeste 0 -- -- 100
2019-09-22 05:00:00 12.3 10 Sudoeste 34 Sudoeste 0.2 -- -- 100
2019-09-22 04:00:00 12.7 10 Sur 32 Sudoeste 0.6 -- -- 100
2019-09-22 03:00:00 13 6 Sur 27 Sudeste 5.6 -- -- 100
2019-09-22 02:00:00 12.6 8 Sur 34 Sur 5.4 -- -- 100
2019-09-22 01:00:00 12.4 15 Sudeste 45 Sudeste 6.2 -- -- 100
2019-09-22 00:00:00 13.4 15 Sudeste 40 Sur 5 -- -- 100
2019-09-21 23:00:00 13.6 13 Sudeste 36 Sudeste 0 -- -- 100
2019-09-21 22:00:00 13.6 12 Sudeste 28 Sur 0.2 -- -- 100
2019-09-21 21:00:00 13.3 9 Sudeste 26 Sudeste 1 -- -- 100
2019-09-21 20:00:00 12.9 9 Sur 28 Sudeste 0 -- -- 100
2019-09-21 19:00:00 12.5 9 Sur 26 Sudeste 3.2 -- -- 100
2019-09-21 18:00:00 12.3 7 Sudeste 22 Este 1.6 -- -- 100
2019-09-21 17:00:00 12 12 Este 31 Este 1 -- -- 100
2019-09-21 16:00:00 11.9 8 Sudeste 22 Este 3.6 -- -- 100
2019-09-21 15:00:00 11.9 10 Este 26 Este 1.8 -- -- 99
2019-09-21 14:00:00 11.6 12 Este 39 Este 2 -- -- 99
2019-09-21 13:00:00 11.5 16 Este 38 Este 0.4 -- -- 99
2019-09-21 12:00:00 11.7 14 Este 33 Este 1 -- -- 100
2019-09-21 11:00:00 11.9 11 Este 28 Sudeste 0.6 -- -- 99
2019-09-21 10:00:00 12 9 Sudeste 29 Sudeste 1.2 -- -- 99
2019-09-21 09:00:00 11.8 7 Sudeste 23 Este 0.6 -- -- 98
2019-09-21 08:00:00 11.8 7 Sudeste 20 Este 0 -- -- 97
2019-09-21 07:00:00 12.1 6 Sudeste 16 Sudeste 0 -- -- 96
2019-09-21 06:00:00 12.2 6 Sudeste 15 Sudeste 0.2 -- -- 95
2019-09-21 05:00:00 12.5 4 Sudeste 15 Sur 0 -- -- 94
2019-09-21 04:00:00 12.3 6 Sudeste 20 Sur 0 -- -- 90
2019-09-21 03:00:00 12.1 4 Sudeste 13 Sudeste 0 -- -- 90
2019-09-21 02:00:00 12.4 5 Sur 14 Sudeste 0 -- -- 86
2019-09-21 01:00:00 13.2 5 Sur 13 Sur 0 -- -- 82
2019-09-21 00:00:00 13.5 0 Calma 18 Sudeste 0 -- -- 87
2019-09-20 23:00:00 13.5 5 Sudeste 17 Sudoeste 0 -- -- 85
2019-09-20 22:00:00 14 4 Sudeste 16 Sudeste 0 -- -- 85
2019-09-20 21:00:00 14.5 4 Sudeste 30 Este 0 -- -- 83
2019-09-20 20:00:00 15.7 5 Sudeste 22 Sur 0 -- -- 73
2019-09-20 19:00:00 17.3 9 Sur 25 Sur 0 -- -- 65
2019-09-20 18:00:00 18 9 Sudeste 26 Sur 0 -- -- 62
2019-09-20 17:00:00 17.7 9 Sudeste 24 Este 0 -- -- 65
2019-09-20 16:00:00 19.6 10 Sudeste 29 Este 0 -- -- 59
2019-09-20 15:00:00 19.3 14 Este 30 Este 0 -- -- 61
2019-09-20 14:00:00 18.2 16 Este 35 Sudeste 0 -- -- 67
2019-09-20 13:00:00 18.4 11 Este 30 Este 0 -- -- 65
2019-09-20 12:00:00 17.2 14 Este 34 Este 0 -- -- 73
2019-09-20 11:00:00 15.1 17 Este 39 Este 0 -- -- 82
2019-09-20 10:00:00 14.2 17 Este 37 Este 0 -- -- 87
2019-09-20 09:00:00 13.7 17 Este 33 Sudeste 0 -- -- 88
2019-09-20 08:00:00 13.7 13 Este 28 Este 0 -- -- 85
2019-09-20 07:00:00 14.1 11 Este 28 Este 0 -- -- 75
2019-09-20 06:00:00 14.7 13 Este 28 Este 0 -- -- 74
2019-09-20 05:00:00 15.2 10 Este 20 Este 0 -- -- 69
2019-09-20 04:00:00 15.2 6 Este 12 Este 0 -- -- 67
2019-09-20 03:00:00 15.3 5 Este 11 Este 0 -- -- 68
2019-09-20 02:00:00 15.3 3 Este 6 Este 0 -- -- 65
2019-09-20 01:00:00 15 3 Sudeste 4 Sudeste 0 -- -- 61
2019-09-20 00:00:00 15.1 2 Sudeste 6 Sudeste 0 -- -- 62